This is the latest recevied weather packets stored in our database for station/object 9W4GWK-G. If no packets are shown the sender has not sent any weather packets the latest 10 day(s).
| Time | Temp. | Humidity | Pressure | Rain* | Wind** | Luminosity | Snow |
|---|---|---|---|---|---|---|---|
| 1777305180 | 30.56° C | 52% | 1010.5 hPa | - | - | - | - |
| 1777304278 | 30° C | 49% | 1010.5 hPa | - | - | - | - |
| 1777303376 | 28.89° C | 44% | 1010.2 hPa | - | - | - | - |
| 1777302473 | 28.89° C | 37% | 1010.2 hPa | - | - | - | - |
| 1777301571 | 28.89° C | 38% | 1010.1 hPa | - | - | - | - |
| 1777300669 | 28.89° C | 38% | 1010.2 hPa | - | - | - | - |
| 1777299766 | 28.89° C | 41% | 1010.1 hPa | - | - | - | - |
| 1777298864 | 28.33° C | 40% | 1009.9 hPa | - | - | - | - |
| 1777297962 | 28.33° C | 39% | 1010 hPa | - | - | - | - |
| 1777297060 | 28.89° C | 39% | 1009.9 hPa | - | - | - | - |
| 1777296158 | 29.44° C | 39% | 1009.8 hPa | - | - | - | - |
| 1777295256 | 30.56° C | 39% | 1009.6 hPa | - | - | - | - |
| 1777294353 | 31.11° C | 43% | 1009.4 hPa | - | - | - | - |
| 1777293451 | 33.33° C | 52% | 1009.3 hPa | - | - | - | - |
| 1777292549 | 34.44° C | 57% | 1009.1 hPa | - | - | - | - |
| 1777291648 | 34.44° C | 57% | 1009 hPa | - | - | - | - |
| 1777290746 | 34.44° C | 57% | 1009.1 hPa | - | - | - | - |
| 1777289844 | 34.44° C | 57% | 1008.8 hPa | - | - | - | - |
| 1777288942 | 34.44° C | 58% | 1008.6 hPa | - | - | - | - |
| 1777288040 | 34.44° C | 58% | 1007.8 hPa | - | - | - | - |
| 1777287138 | 34.44° C | 58% | 1007.8 hPa | - | - | - | - |
| 1777286236 | 34.44° C | 58% | 1007.6 hPa | - | - | - | - |
| 1777285333 | 34.44° C | 58% | 1007.8 hPa | - | - | - | - |
| 1777284431 | 34.44° C | 58% | 1007.9 hPa | - | - | - | - |
| 1777283529 | 35° C | 58% | 1007.1 hPa | - | - | - | - |
* Rain since midnight (hover to see other rain measurements)
** Current wind speed in m/s (hover to see current wind gust speed)